createdAt,value
2017-11-30T00:09:37.000Z,24.03
2017-11-30T00:19:37.000Z,24.07
2017-11-30T00:29:37.000Z,24.03
2017-11-30T00:39:37.000Z,24.08
2017-11-30T00:49:37.000Z,24
2017-11-30T00:59:37.000Z,24.01
2017-11-30T01:09:37.000Z,24.01
2017-11-30T01:19:37.000Z,23.89
2017-11-30T01:29:37.000Z,23.92
2017-11-30T01:39:37.000Z,23.94
2017-11-30T01:49:37.000Z,23.93
2017-11-30T01:59:37.000Z,23.89
2017-11-30T02:09:37.000Z,23.87
2017-11-30T02:19:37.000Z,23.86
2017-11-30T02:29:37.000Z,23.86
2017-11-30T02:39:39.000Z,23.85
2017-11-30T02:49:37.000Z,23.77
2017-11-30T02:59:37.000Z,23.73
2017-11-30T03:09:37.000Z,23.72
2017-11-30T03:19:37.000Z,23.69
2017-11-30T03:29:37.000Z,23.65
2017-11-30T03:39:37.000Z,23.63
2017-11-30T03:49:37.000Z,23.63
2017-11-30T03:59:37.000Z,23.57
2017-11-30T04:09:38.000Z,23.51
2017-11-30T04:19:38.000Z,23.5
2017-11-30T04:29:38.000Z,23.44
2017-11-30T04:39:38.000Z,23.42
2017-11-30T04:49:38.000Z,23.43
2017-11-30T04:59:38.000Z,23.4
2017-11-30T05:09:38.000Z,23.36
2017-11-30T05:19:38.000Z,23.35
2017-11-30T05:29:38.000Z,23.31
2017-11-30T05:39:38.000Z,23.3
2017-11-30T05:49:38.000Z,23.34
2017-11-30T05:59:38.000Z,23.33
2017-11-30T06:09:38.000Z,23.38
2017-11-30T06:19:38.000Z,23.28
2017-11-30T06:29:38.000Z,23.29
2017-11-30T06:39:38.000Z,23.32
2017-11-30T06:49:38.000Z,23.23
2017-11-30T06:59:38.000Z,23.33
2017-11-30T07:09:38.000Z,23.32
2017-11-30T07:19:39.000Z,23.34
2017-11-30T07:29:38.000Z,23.35
2017-11-30T07:39:38.000Z,23.38
2017-11-30T07:49:38.000Z,23.43
2017-11-30T07:59:38.000Z,23.44
2017-11-30T08:09:38.000Z,23.57
2017-11-30T08:19:38.000Z,23.51
2017-11-30T08:29:38.000Z,23.62
2017-11-30T08:39:38.000Z,23.65
2017-11-30T08:49:38.000Z,23.67
2017-11-30T09:19:38.000Z,23.94
2017-11-30T09:29:38.000Z,23.97
2017-11-30T09:39:38.000Z,23.95
2017-11-30T09:49:38.000Z,23.98
2017-11-30T09:59:38.000Z,24.06
2017-11-30T10:09:38.000Z,24.1
2017-11-30T10:19:38.000Z,24.07
2017-11-30T10:29:38.000Z,24.12
2017-11-30T10:39:38.000Z,24.12
2017-11-30T10:49:38.000Z,24.13
2017-11-30T10:59:38.000Z,24.16
2017-11-30T11:09:38.000Z,24.14
2017-11-30T11:19:38.000Z,24.22
2017-11-30T11:29:38.000Z,24.19
2017-11-30T11:39:38.000Z,24.27
2017-11-30T11:49:38.000Z,24.33
2017-11-30T11:59:38.000Z,24.42
2017-11-30T12:09:39.000Z,24.58
2017-11-30T12:19:39.000Z,24.41
2017-11-30T12:29:39.000Z,24.36
2017-11-30T12:39:39.000Z,24.41
2017-11-30T12:49:39.000Z,24.61
2017-11-30T12:59:39.000Z,24.74
2017-11-30T13:09:39.000Z,24.78
2017-11-30T13:19:39.000Z,24.76
2017-11-30T13:29:39.000Z,24.82
2017-11-30T13:39:39.000Z,24.74
2017-11-30T13:49:39.000Z,24.98
2017-11-30T13:59:39.000Z,24.89
2017-11-30T14:09:39.000Z,25
2017-11-30T14:19:39.000Z,25.12
2017-11-30T14:29:39.000Z,25.11
2017-11-30T14:39:39.000Z,25.07
2017-11-30T14:49:39.000Z,25.13
2017-11-30T14:59:39.000Z,25.04
2017-11-30T15:09:39.000Z,25.08
2017-11-30T15:19:39.000Z,25.11
2017-11-30T15:29:39.000Z,25.29
2017-11-30T15:39:39.000Z,25.17
2017-11-30T15:49:39.000Z,25.18
2017-11-30T15:59:39.000Z,25.19
2017-11-30T16:09:39.000Z,25.17
2017-11-30T16:19:39.000Z,25.26
2017-11-30T16:29:39.000Z,25.31
2017-11-30T16:39:39.000Z,25.36
2017-11-30T16:49:39.000Z,25.37
2017-11-30T16:59:39.000Z,25.4
2017-11-30T17:09:39.000Z,25.34
2017-11-30T17:19:39.000Z,25.17
2017-11-30T17:29:39.000Z,25.19
2017-11-30T17:39:39.000Z,25.37
2017-11-30T17:49:39.000Z,25.15
2017-11-30T17:59:39.000Z,25.26
2017-11-30T18:09:39.000Z,25.26
2017-11-30T18:19:39.000Z,25.2
2017-11-30T18:29:39.000Z,25.3
2017-11-30T18:39:39.000Z,25.33
2017-11-30T18:49:39.000Z,25.37
2017-11-30T18:59:39.000Z,25.37
2017-11-30T19:09:39.000Z,25.38
2017-11-30T19:19:39.000Z,25.43
2017-11-30T19:29:39.000Z,25.42
2017-11-30T19:39:39.000Z,25.46
2017-11-30T19:49:39.000Z,25.53
2017-11-30T19:59:39.000Z,25.54
2017-11-30T20:09:39.000Z,25.49
2017-11-30T20:19:39.000Z,25.53
2017-11-30T20:29:40.000Z,25.59
2017-11-30T20:39:40.000Z,25.77
2017-11-30T20:49:40.000Z,25.81
2017-11-30T20:59:40.000Z,25.9
2017-11-30T21:09:40.000Z,25.99
2017-11-30T21:19:40.000Z,25.84
2017-11-30T21:29:40.000Z,25.85
2017-11-30T21:39:40.000Z,25.83
2017-11-30T21:49:40.000Z,25.93
2017-11-30T21:59:40.000Z,25.86
2017-11-30T22:09:40.000Z,26.04
2017-11-30T22:19:40.000Z,26.06
2017-11-30T22:29:40.000Z,26.18
2017-11-30T22:39:40.000Z,26.09
2017-11-30T22:49:40.000Z,26.11
2017-11-30T22:59:40.000Z,25.9
2017-11-30T23:09:40.000Z,25.95
2017-11-30T23:19:40.000Z,25.95
2017-11-30T23:29:40.000Z,25.95
2017-11-30T23:39:40.000Z,25.81
2017-11-30T23:49:40.000Z,25.76
2017-11-30T23:59:40.000Z,25.7
